createdAt,value
2019-05-30T00:00:24.047Z,4.77
2019-05-30T00:01:24.018Z,4.77
2019-05-30T00:02:24.099Z,4.74
2019-05-30T00:03:24.086Z,4.83
2019-05-30T00:04:23.970Z,4.64
2019-05-30T00:05:24.043Z,4.72
2019-05-30T00:06:23.951Z,4.68
2019-05-30T00:07:24.031Z,4.69
2019-05-30T00:08:23.931Z,4.74
2019-05-30T00:09:23.971Z,4.72
2019-05-30T00:10:23.922Z,4.67
2019-05-30T00:11:24.023Z,4.61
2019-05-30T00:12:23.895Z,4.67
2019-05-30T00:13:23.945Z,4.68
2019-05-30T00:14:23.875Z,4.62
2019-05-30T00:15:23.935Z,4.65
2019-05-30T00:16:23.846Z,4.61
2019-05-30T00:17:23.926Z,4.56
2019-05-30T00:18:23.826Z,4.47
2019-05-30T00:19:23.850Z,4.64
2019-05-30T00:20:23.814Z,4.62
2019-05-30T00:21:23.888Z,4.64
2019-05-30T00:22:23.778Z,4.57
2019-05-30T00:23:23.819Z,4.59
2019-05-30T00:24:23.752Z,4.46
2019-05-30T00:25:23.811Z,4.49
2019-05-30T00:26:23.732Z,4.51
2019-05-30T00:27:23.802Z,4.35
2019-05-30T00:28:23.726Z,4.38
2019-05-30T00:29:23.702Z,4.44
2019-05-30T00:30:24.958Z,4.44
2019-05-30T00:31:23.684Z,4.38
2019-05-30T00:32:23.733Z,4.35
2019-05-30T00:33:23.657Z,4.36
2019-05-30T00:34:23.733Z,4.38
2019-05-30T00:35:23.676Z,4.34
2019-05-30T00:36:23.620Z,4.26
2019-05-30T00:37:23.690Z,4.21
2019-05-30T00:38:23.597Z,4.26
2019-05-30T00:39:23.588Z,4.20
2019-05-30T00:40:23.637Z,4.24
2019-05-30T00:41:23.580Z,4.14
2019-05-30T00:42:23.647Z,4.21
2019-05-30T00:43:23.549Z,4.20
2019-05-30T00:44:23.540Z,4.16
2019-05-30T00:45:23.551Z,4.13
2019-05-30T00:46:23.591Z,4.06
2019-05-30T00:47:23.502Z,4.06
2019-05-30T00:48:23.533Z,4.06
2019-05-30T00:49:23.484Z,4.08
2019-05-30T00:50:23.533Z,4.04
2019-05-30T00:51:23.453Z,4.18
2019-05-30T00:52:23.497Z,4.08
2019-05-30T00:53:23.435Z,4.07
2019-05-30T00:54:23.425Z,4.04
2019-05-30T00:55:23.445Z,4.13
2019-05-30T00:56:23.418Z,4.07
2019-05-30T00:57:23.438Z,4.08
2019-05-30T00:58:23.387Z,4.07
2019-05-30T00:59:23.377Z,4.07
2019-05-30T01:00:41.628Z,4.10
2019-05-30T01:01:24.348Z,3.95
2019-05-30T01:02:23.369Z,4.16
2019-05-30T01:03:23.329Z,3.93
2019-05-30T01:04:23.346Z,4.04
2019-05-30T01:05:26.607Z,4.04
2019-05-30T01:06:23.354Z,3.95
2019-05-30T01:07:23.281Z,3.96
2019-05-30T01:08:23.387Z,3.92
2019-05-30T01:09:23.272Z,3.98
2019-05-30T01:10:23.373Z,3.90
2019-05-30T01:11:23.243Z,3.89
2019-05-30T01:12:23.255Z,3.96
2019-05-30T01:13:23.225Z,3.96
2019-05-30T01:14:23.296Z,4.07
2019-05-30T01:15:23.206Z,4.06
2019-05-30T01:16:23.286Z,4.07
2019-05-30T01:17:23.177Z,3.95
2019-05-30T01:18:23.267Z,3.98
2019-05-30T01:19:23.147Z,4.00
2019-05-30T01:20:23.138Z,4.11
2019-05-30T01:21:23.209Z,4.04
2019-05-30T01:22:23.119Z,3.98
2019-05-30T01:23:24.130Z,3.89
2019-05-30T01:24:23.110Z,3.98
2019-05-30T01:25:23.103Z,3.96
2019-05-30T01:26:23.161Z,3.98
2019-05-30T01:27:23.072Z,3.98
2019-05-30T01:28:23.152Z,3.96
2019-05-30T01:29:23.054Z,3.98
2019-05-30T01:30:23.051Z,3.99
2019-05-30T01:31:23.094Z,3.92
2019-05-30T01:32:23.005Z,3.81
2019-05-30T01:33:23.085Z,3.81
2019-05-30T01:34:22.986Z,3.86
2019-05-30T01:35:22.976Z,3.80
2019-05-30T01:36:22.976Z,3.84
2019-05-30T01:37:23.067Z,3.70
2019-05-30T01:38:22.948Z,3.71
2019-05-30T01:39:22.997Z,3.74
2019-05-30T01:40:22.934Z,3.62
2019-05-30T01:41:22.979Z,3.67
2019-05-30T01:42:22.912Z,3.68
2019-05-30T01:43:22.970Z,3.74
2019-05-30T01:44:22.892Z,3.80
2019-05-30T01:45:22.870Z,3.71
2019-05-30T01:46:22.872Z,3.68
2019-05-30T01:47:22.943Z,3.68
2019-05-30T01:48:22.832Z,3.63
2019-05-30T01:49:22.872Z,3.62
2019-05-30T01:50:22.843Z,3.63
2019-05-30T01:51:22.813Z,3.56
2019-05-30T01:52:22.891Z,3.60
2019-05-30T01:53:22.774Z,3.60
2019-05-30T01:54:22.826Z,3.63
2019-05-30T01:55:22.885Z,3.63
2019-05-30T01:56:22.836Z,3.62
2019-05-30T01:57:22.827Z,3.62
2019-05-30T01:58:22.729Z,3.57
2019-05-30T01:59:22.758Z,3.60
2019-05-30T02:00:22.718Z,3.53
2019-05-30T02:01:25.415Z,3.57
2019-05-30T02:02:22.770Z,3.52
2019-05-30T02:03:22.669Z,3.46
2019-05-30T02:04:22.690Z,3.39
2019-05-30T02:05:22.641Z,3.42
2019-05-30T02:06:22.681Z,3.44
2019-05-30T02:07:22.624Z,3.33
2019-05-30T02:08:22.678Z,3.37
2019-05-30T02:09:22.612Z,3.39
2019-05-30T02:10:22.603Z,3.35
2019-05-30T02:11:22.606Z,3.41
2019-05-30T02:12:22.646Z,3.39
2019-05-30T02:13:22.566Z,3.28
2019-05-30T02:14:22.586Z,3.34
2019-05-30T02:15:22.544Z,3.34
2019-05-30T02:16:22.560Z,3.37
2019-05-30T02:17:22.506Z,3.42
2019-05-30T02:18:22.548Z,3.39
2019-05-30T02:19:22.489Z,3.33
2019-05-30T02:20:22.588Z,3.35
2019-05-30T02:21:22.478Z,3.35
2019-05-30T02:22:22.520Z,3.35
2019-05-30T02:23:22.452Z,3.34
2019-05-30T02:24:22.460Z,3.22
2019-05-30T02:25:22.415Z,3.31
2019-05-30T02:26:22.436Z,3.31
2019-05-30T02:27:22.392Z,3.25
2019-05-30T02:28:22.425Z,3.30
2019-05-30T02:29:22.363Z,3.30
2019-05-30T02:30:22.463Z,3.33
2019-05-30T02:31:38.332Z,3.37
2019-05-30T02:32:23.357Z,3.35
2019-05-30T02:33:22.375Z,3.26
2019-05-30T02:34:22.305Z,3.23
2019-05-30T02:35:22.411Z,3.20
2019-05-30T02:36:22.303Z,3.25
2019-05-30T02:37:22.387Z,3.25
2019-05-30T02:38:22.297Z,3.20
2019-05-30T02:39:22.270Z,3.16
2019-05-30T02:40:22.258Z,3.15
2019-05-30T02:41:22.320Z,3.16
2019-05-30T02:42:22.269Z,3.12
2019-05-30T02:43:22.250Z,3.16
2019-05-30T02:44:22.201Z,2.98
2019-05-30T02:45:22.283Z,3.02
2019-05-30T02:46:22.171Z,2.99
2019-05-30T02:47:22.710Z,3.01
2019-05-30T02:48:22.293Z,2.90
2019-05-30T02:49:22.149Z,2.94
2019-05-30T02:50:24.165Z,2.95
2019-05-30T02:51:22.125Z,2.99
2019-05-30T02:52:22.148Z,2.97
2019-05-30T02:53:22.124Z,2.95
2019-05-30T02:54:22.111Z,2.90
2019-05-30T02:55:22.178Z,2.98
2019-05-30T02:56:22.078Z,2.92
2019-05-30T02:57:22.093Z,3.02
2019-05-30T02:58:22.050Z,2.95
2019-05-30T02:59:22.161Z,2.97
2019-05-30T03:00:22.029Z,2.89
2019-05-30T03:01:22.094Z,2.97
2019-05-30T03:02:22.089Z,2.92
2019-05-30T03:03:21.993Z,2.90
2019-05-30T03:04:22.081Z,2.87
2019-05-30T03:05:21.972Z,2.98
2019-05-30T03:06:22.018Z,2.81
2019-05-30T03:07:21.979Z,2.90
2019-05-30T03:08:21.954Z,2.97
2019-05-30T03:09:21.934Z,2.99
2019-05-30T03:10:21.995Z,2.94
2019-05-30T03:11:21.928Z,2.94
2019-05-30T03:12:21.925Z,2.81
2019-05-30T03:13:21.901Z,2.95
2019-05-30T03:14:21.972Z,2.90
2019-05-30T03:15:21.856Z,2.90
2019-05-30T03:16:21.898Z,2.87
2019-05-30T03:17:21.838Z,2.87
2019-05-30T03:18:21.838Z,2.84
2019-05-30T03:19:22.936Z,2.94
2019-05-30T03:20:23.394Z,2.92
2019-05-30T03:21:21.844Z,2.92
2019-05-30T03:22:21.791Z,2.81
2019-05-30T03:23:21.791Z,2.90
2019-05-30T03:24:21.765Z,2.94
2019-05-30T03:25:21.812Z,2.87
2019-05-30T03:26:21.742Z,2.89
2019-05-30T03:27:21.771Z,2.89
2019-05-30T03:28:21.757Z,2.73
2019-05-30T03:29:21.704Z,2.84
2019-05-30T03:30:28.123Z,2.84
2019-05-30T03:31:28.840Z,2.83
2019-05-30T03:33:01.698Z,2.86
2019-05-30T03:33:38.175Z,2.80
2019-05-30T03:34:28.371Z,2.83
2019-05-30T03:35:29.514Z,2.92
2019-05-30T03:36:29.862Z,2.83
2019-05-30T03:37:29.338Z,2.87
2019-05-30T03:38:22.673Z,2.86
2019-05-30T03:39:21.599Z,2.84
2019-05-30T03:40:23.480Z,2.95
2019-05-30T03:41:21.579Z,2.84
2019-05-30T03:42:21.661Z,2.81
2019-05-30T03:43:21.561Z,2.94
2019-05-30T03:44:21.531Z,2.95
2019-05-30T03:45:21.523Z,2.84
2019-05-30T03:46:21.536Z,2.90
2019-05-30T03:47:21.493Z,3.01
2019-05-30T03:48:21.615Z,2.95
2019-05-30T03:49:21.544Z,2.92
2019-05-30T03:50:21.467Z,2.98
2019-05-30T03:51:21.475Z,3.01
2019-05-30T03:52:21.455Z,3.02
2019-05-30T03:53:21.567Z,2.99
2019-05-30T03:54:21.493Z,3.04
2019-05-30T03:55:21.420Z,3.05
2019-05-30T03:56:21.407Z,3.07
2019-05-30T03:57:21.390Z,3.13
2019-05-30T03:58:21.498Z,3.10
2019-05-30T03:59:21.357Z,3.17
2019-05-30T04:00:21.388Z,3.17
2019-05-30T04:01:21.340Z,3.16
2019-05-30T04:02:21.433Z,3.22
2019-05-30T04:03:21.331Z,3.30
2019-05-30T04:04:21.372Z,3.30
2019-05-30T04:05:21.302Z,3.31
2019-05-30T04:06:21.404Z,3.28
2019-05-30T04:07:21.282Z,3.33
2019-05-30T04:08:21.383Z,3.35
2019-05-30T04:09:24.532Z,3.26
2019-05-30T04:10:21.260Z,3.34
2019-05-30T04:11:21.345Z,3.26
2019-05-30T04:12:21.215Z,3.23
2019-05-30T04:13:22.236Z,3.17
2019-05-30T04:14:21.194Z,3.16
2019-05-30T04:15:21.186Z,3.12
2019-05-30T04:16:21.278Z,3.12
2019-05-30T04:17:21.158Z,3.16
2019-05-30T04:18:21.282Z,3.13
2019-05-30T04:19:21.148Z,3.17
2019-05-30T04:20:23.218Z,3.25
2019-05-30T04:21:21.774Z,3.33
2019-05-30T04:22:21.113Z,3.30
2019-05-30T04:23:21.159Z,3.30
2019-05-30T04:24:21.110Z,3.35
2019-05-30T04:25:21.089Z,3.39
2019-05-30T04:26:21.072Z,3.34
2019-05-30T04:27:21.125Z,3.46
2019-05-30T04:28:21.031Z,3.45
2019-05-30T04:29:21.115Z,3.46
2019-05-30T04:30:21.013Z,3.39
2019-05-30T04:31:21.097Z,3.35
2019-05-30T04:32:20.993Z,3.34
2019-05-30T04:33:32.325Z,3.46
2019-05-30T04:34:21.987Z,3.45
2019-05-30T04:35:21.076Z,3.46
2019-05-30T04:36:20.957Z,3.52
2019-05-30T04:37:21.015Z,3.62
2019-05-30T04:38:21.027Z,3.64
2019-05-30T04:39:20.987Z,3.59
2019-05-30T04:40:20.910Z,3.60
2019-05-30T04:41:21.139Z,3.60
2019-05-30T04:42:20.968Z,3.56
2019-05-30T04:43:20.914Z,3.60
2019-05-30T04:44:20.900Z,3.70
2019-05-30T04:45:27.403Z,3.60
2019-05-30T04:46:22.212Z,3.74
2019-05-30T04:47:21.006Z,3.67
2019-05-30T04:48:21.435Z,3.72
2019-05-30T04:49:21.609Z,3.72
2019-05-30T04:50:20.904Z,3.72
2019-05-30T04:51:21.652Z,3.84
2019-05-30T04:52:24.426Z,3.82
2019-05-30T04:53:21.179Z,3.80
2019-05-30T04:54:21.372Z,3.81
2019-05-30T04:55:23.039Z,3.84
2019-05-30T04:56:21.952Z,3.82
2019-05-30T04:57:25.637Z,3.84
2019-05-30T04:58:24.125Z,3.78
2019-05-30T04:59:22.035Z,3.89
2019-05-30T05:00:21.493Z,3.89
2019-05-30T05:01:22.163Z,3.88
2019-05-30T05:02:23.055Z,3.86
2019-05-30T05:03:43.436Z,3.88
2019-05-30T05:04:21.939Z,3.90
2019-05-30T05:05:26.308Z,3.96
2019-05-30T05:06:22.104Z,3.99
2019-05-30T05:07:22.050Z,4.06
2019-05-30T05:08:21.976Z,4.02
2019-05-30T05:09:22.176Z,3.95
2019-05-30T05:10:22.329Z,4.11
2019-05-30T05:11:23.593Z,4.08
2019-05-30T05:12:20.555Z,4.06
2019-05-30T05:13:20.553Z,4.07
2019-05-30T05:14:20.667Z,4.10
2019-05-30T05:15:20.777Z,4.10
2019-05-30T05:16:30.797Z,4.14
2019-05-30T05:17:22.962Z,4.10
2019-05-30T05:18:21.107Z,4.14
2019-05-30T05:19:22.173Z,4.20
2019-05-30T05:20:21.414Z,4.20
2019-05-30T05:21:21.035Z,4.29
2019-05-30T05:22:21.173Z,4.35
2019-05-30T05:23:21.338Z,4.36
2019-05-30T05:24:21.443Z,4.36
2019-05-30T05:25:20.446Z,4.34
2019-05-30T05:26:21.566Z,4.32
2019-05-30T05:27:20.381Z,4.50
2019-05-30T05:28:20.475Z,4.46
2019-05-30T05:29:20.364Z,4.62
2019-05-30T05:30:20.413Z,4.62
2019-05-30T05:31:20.440Z,4.65
2019-05-30T05:32:20.500Z,4.67
2019-05-30T05:33:20.629Z,4.71
2019-05-30T05:34:21.354Z,4.80
2019-05-30T05:35:20.863Z,4.88
2019-05-30T05:36:20.962Z,4.93
2019-05-30T05:37:21.151Z,4.88
2019-05-30T05:38:20.257Z,4.96
2019-05-30T05:39:20.377Z,4.94
2019-05-30T05:40:20.239Z,5.05
2019-05-30T05:41:20.278Z,5.14
2019-05-30T05:42:20.346Z,5.24
2019-05-30T05:43:20.350Z,5.30
2019-05-30T05:44:20.400Z,5.33
2019-05-30T05:45:20.526Z,5.37
2019-05-30T05:46:20.396Z,5.51
2019-05-30T05:47:20.501Z,5.52
2019-05-30T05:48:20.461Z,5.60
2019-05-30T05:49:22.527Z,5.67
2019-05-30T05:50:20.497Z,5.84
2019-05-30T05:51:20.767Z,5.83
2019-05-30T05:52:20.705Z,5.96
2019-05-30T05:53:20.862Z,6.13
2019-05-30T05:54:20.898Z,6.42
2019-05-30T05:55:20.856Z,7.57
2019-05-30T05:56:20.847Z,9.24
2019-05-30T05:57:20.788Z,10.72
2019-05-30T05:58:20.905Z,12.04
2019-05-30T05:59:20.971Z,12.99
2019-05-30T06:00:21.275Z,13.80
2019-05-30T06:01:21.412Z,14.49
2019-05-30T06:02:21.103Z,15.27
2019-05-30T06:03:20.399Z,15.84
2019-05-30T06:04:21.010Z,16.52
2019-05-30T06:05:20.232Z,17.14
2019-05-30T06:06:21.189Z,17.77
2019-05-30T06:07:20.306Z,18.21
2019-05-30T06:08:19.921Z,18.60
2019-05-30T06:09:20.822Z,19.02
2019-05-30T06:10:19.906Z,19.46
2019-05-30T06:11:20.530Z,19.83
2019-05-30T06:12:19.875Z,20.30
2019-05-30T06:13:20.766Z,20.69
2019-05-30T06:14:19.997Z,20.81
2019-05-30T06:15:20.816Z,21.15
2019-05-30T06:16:19.974Z,21.52
2019-05-30T06:17:21.114Z,22.08
2019-05-30T06:18:20.235Z,22.38
2019-05-30T06:19:21.086Z,22.41
2019-05-30T06:20:19.870Z,22.51
2019-05-30T06:21:19.778Z,22.61
2019-05-30T06:22:19.859Z,22.54
2019-05-30T06:23:19.769Z,22.44
2019-05-30T06:24:19.780Z,22.52
2019-05-30T06:25:22.271Z,22.70
2019-05-30T06:26:20.033Z,22.91
2019-05-30T06:27:20.115Z,23.22
2019-05-30T06:28:19.997Z,23.42
2019-05-30T06:29:20.141Z,23.77
2019-05-30T06:30:20.393Z,23.99
2019-05-30T06:31:20.316Z,24.36
2019-05-30T06:32:20.905Z,24.52
2019-05-30T06:33:20.574Z,24.74
2019-05-30T06:34:30.257Z,24.92
2019-05-30T06:35:21.405Z,24.71
2019-05-30T06:36:20.855Z,24.87
2019-05-30T06:37:19.669Z,24.84
2019-05-30T06:38:19.577Z,25.01
2019-05-30T06:39:21.313Z,25.05
2019-05-30T06:40:19.571Z,25.30
2019-05-30T06:41:19.540Z,25.63
2019-05-30T06:42:19.602Z,25.91
2019-05-30T06:43:19.896Z,26.03
2019-05-30T06:44:19.860Z,25.93
2019-05-30T06:45:21.010Z,25.59
2019-05-30T06:46:20.126Z,24.99
2019-05-30T06:47:20.156Z,24.37
2019-05-30T06:48:20.624Z,24.12
2019-05-30T06:49:20.596Z,24.16
2019-05-30T06:50:20.610Z,24.34
2019-05-30T06:51:20.875Z,24.39
2019-05-30T06:52:20.783Z,24.97
2019-05-30T06:53:19.457Z,25.19
2019-05-30T06:54:19.397Z,25.35
2019-05-30T06:55:19.498Z,25.31
2019-05-30T06:56:19.388Z,25.34
2019-05-30T06:57:19.442Z,25.71
2019-05-30T06:58:19.351Z,25.74
2019-05-30T06:59:19.372Z,25.79
2019-05-30T07:00:19.339Z,25.79
2019-05-30T07:01:19.465Z,25.39
2019-05-30T07:02:19.358Z,25.41
2019-05-30T07:03:19.469Z,25.04
2019-05-30T07:04:19.673Z,25.08
2019-05-30T07:05:20.035Z,25.61
2019-05-30T07:06:19.697Z,26.24
2019-05-30T07:07:19.472Z,26.60
2019-05-30T07:08:19.287Z,26.71
2019-05-30T07:09:19.237Z,27.08
2019-05-30T07:10:19.317Z,27.40
2019-05-30T07:11:19.239Z,27.49
2019-05-30T07:12:19.988Z,27.40
2019-05-30T07:13:19.230Z,27.69
2019-05-30T07:14:19.190Z,28.06
2019-05-30T07:15:19.261Z,28.23
2019-05-30T07:16:19.171Z,28.69
2019-05-30T07:17:19.153Z,29.02
2019-05-30T07:18:19.245Z,28.91
2019-05-30T07:19:19.233Z,29.12
2019-05-30T07:20:19.114Z,29.23
2019-05-30T07:21:19.214Z,29.47
2019-05-30T07:22:19.086Z,29.81
2019-05-30T07:23:19.086Z,29.81
2019-05-30T07:24:19.176Z,29.52
2019-05-30T07:25:19.067Z,29.27
2019-05-30T07:26:19.168Z,29.14
2019-05-30T07:27:19.041Z,29.02
2019-05-30T07:28:19.019Z,29.32
2019-05-30T07:29:19.109Z,29.18
2019-05-30T07:30:19.000Z,28.27
2019-05-30T07:31:19.091Z,27.12
2019-05-30T07:32:18.972Z,26.78
2019-05-30T07:33:18.962Z,26.78
2019-05-30T07:34:18.966Z,26.97
2019-05-30T07:35:19.033Z,27.59
2019-05-30T07:36:18.945Z,27.61
2019-05-30T07:37:19.015Z,27.53
2019-05-30T07:38:18.916Z,27.63
2019-05-30T07:39:18.996Z,27.55
2019-05-30T07:40:19.880Z,28.01
2019-05-30T07:41:18.929Z,28.18
2019-05-30T07:42:18.895Z,27.72
2019-05-30T07:43:18.970Z,27.25
2019-05-30T07:44:18.942Z,27.24
2019-05-30T07:45:18.832Z,27.13
2019-05-30T07:46:18.881Z,27.20
2019-05-30T07:47:18.851Z,27.50
2019-05-30T07:48:18.912Z,27.59
2019-05-30T07:49:18.884Z,28.33
2019-05-30T07:50:18.786Z,28.74
2019-05-30T07:51:19.845Z,28.38
2019-05-30T07:52:18.784Z,28.42
2019-05-30T07:53:18.855Z,28.91
2019-05-30T07:54:18.738Z,29.14
2019-05-30T07:55:18.757Z,28.92
2019-05-30T07:56:18.758Z,28.79
2019-05-30T07:57:18.719Z,29.27
2019-05-30T07:58:18.801Z,30.21
2019-05-30T07:59:18.689Z,30.72
2019-05-30T08:00:18.680Z,30.79
2019-05-30T08:01:18.664Z,29.94
2019-05-30T08:02:18.713Z,28.97
2019-05-30T08:03:18.645Z,28.42
2019-05-30T08:04:18.702Z,28.72
2019-05-30T08:05:23.990Z,28.40
2019-05-30T08:06:19.594Z,28.83
2019-05-30T08:07:18.658Z,29.20
2019-05-30T08:08:18.575Z,29.81
2019-05-30T08:09:18.646Z,29.67
2019-05-30T08:10:18.556Z,29.66
2019-05-30T08:11:18.587Z,28.74
2019-05-30T08:12:18.558Z,27.81
2019-05-30T08:13:18.619Z,27.33
2019-05-30T08:14:18.523Z,27.63
2019-05-30T08:15:18.550Z,28.11
2019-05-30T08:16:18.502Z,28.79
2019-05-30T08:17:18.534Z,29.30
2019-05-30T08:18:18.463Z,29.54
2019-05-30T08:19:18.523Z,29.48
2019-05-30T08:20:18.452Z,29.95
2019-05-30T08:21:18.434Z,30.59
2019-05-30T08:22:18.485Z,29.85
2019-05-30T08:23:18.431Z,29.37
2019-05-30T08:24:18.467Z,29.48
2019-05-30T08:25:18.400Z,29.41
2019-05-30T08:26:18.530Z,29.03
2019-05-30T08:27:18.378Z,28.82
2019-05-30T08:28:18.494Z,28.80
2019-05-30T08:29:18.350Z,28.80
2019-05-30T08:30:18.382Z,28.88
2019-05-30T08:31:18.341Z,28.97
2019-05-30T08:32:18.311Z,28.85
2019-05-30T08:33:21.360Z,29.44
2019-05-30T08:34:18.303Z,30.42
2019-05-30T08:35:18.324Z,30.97
2019-05-30T08:36:18.277Z,31.37
2019-05-30T08:37:18.356Z,31.75
2019-05-30T08:38:18.276Z,31.38
2019-05-30T08:39:18.287Z,31.54
2019-05-30T08:40:18.227Z,30.44
2019-05-30T08:41:18.346Z,29.74
2019-05-30T08:42:18.199Z,30.36
2019-05-30T08:43:18.333Z,31.07
2019-05-30T08:44:18.181Z,30.82
2019-05-30T08:45:18.201Z,30.45
2019-05-30T08:46:18.171Z,30.29
2019-05-30T08:47:18.163Z,29.44
2019-05-30T08:48:18.166Z,29.81
2019-05-30T08:49:18.173Z,30.04
2019-05-30T08:50:18.124Z,30.29
2019-05-30T08:51:18.205Z,29.39
2019-05-30T08:52:18.175Z,29.10
2019-05-30T08:53:18.101Z,30.03
2019-05-30T08:54:18.110Z,29.74
2019-05-30T08:55:18.047Z,30.67
2019-05-30T08:56:18.148Z,31.46
2019-05-30T08:57:18.049Z,31.64
2019-05-30T08:58:18.145Z,31.97
2019-05-30T08:59:18.030Z,32.19
2019-05-30T09:00:18.022Z,32.78
2019-05-30T09:01:18.002Z,33.90
2019-05-30T09:02:18.067Z,34.50
2019-05-30T09:03:18.013Z,32.49
2019-05-30T09:04:17.993Z,31.50
2019-05-30T09:05:17.946Z,31.18
2019-05-30T09:06:18.037Z,30.75
2019-05-30T09:07:17.925Z,31.31
2019-05-30T09:08:17.926Z,32.31
2019-05-30T09:09:17.940Z,33.55
2019-05-30T09:10:17.913Z,33.89
2019-05-30T09:11:17.979Z,34.03
2019-05-30T09:12:17.879Z,33.15
2019-05-30T09:13:17.891Z,33.57
2019-05-30T09:14:17.861Z,34.43
2019-05-30T09:15:21.725Z,34.46
2019-05-30T09:16:17.837Z,34.88
2019-05-30T09:17:17.882Z,34.50
2019-05-30T09:18:17.853Z,32.06
2019-05-30T09:19:17.816Z,31.78
2019-05-30T09:20:17.885Z,32.24
2019-05-30T09:21:17.785Z,32.58
2019-05-30T09:22:17.827Z,33.34
2019-05-30T09:23:17.756Z,34.36
2019-05-30T09:24:17.848Z,34.16
2019-05-30T09:25:17.737Z,33.57
2019-05-30T09:26:17.788Z,33.47
2019-05-30T09:27:17.731Z,33.31
2019-05-30T09:28:17.731Z,33.62
2019-05-30T09:29:17.700Z,33.97
2019-05-30T09:30:17.788Z,33.53
2019-05-30T09:31:17.676Z,32.49
2019-05-30T09:32:17.702Z,32.44
2019-05-30T09:33:17.653Z,32.87
2019-05-30T09:34:17.654Z,31.30
2019-05-30T09:35:17.636Z,30.36
2019-05-30T09:36:17.685Z,30.11
2019-05-30T09:37:17.607Z,29.15
2019-05-30T09:38:17.608Z,28.33
2019-05-30T09:39:17.617Z,28.95
2019-05-30T09:40:17.564Z,29.47
2019-05-30T09:41:17.620Z,29.29
2019-05-30T09:42:17.539Z,28.35
2019-05-30T09:43:17.559Z,27.69
2019-05-30T09:44:17.541Z,27.09
2019-05-30T09:45:17.903Z,26.08
2019-05-30T09:46:17.507Z,24.70
2019-05-30T09:47:17.547Z,23.89
2019-05-30T09:48:17.483Z,23.26
2019-05-30T09:49:17.526Z,22.86
2019-05-30T09:50:17.455Z,22.14
2019-05-30T09:51:17.496Z,22.06
2019-05-30T09:52:17.426Z,22.27
2019-05-30T09:53:17.437Z,22.27
2019-05-30T09:54:17.437Z,22.05
2019-05-30T09:55:17.409Z,22.01
2019-05-30T09:56:17.414Z,21.85
2019-05-30T09:57:17.410Z,21.75
2019-05-30T09:58:17.370Z,21.55
2019-05-30T09:59:18.410Z,21.56
2019-05-30T10:00:17.421Z,21.70
2019-05-30T10:01:17.348Z,21.53
2019-05-30T10:02:17.344Z,21.24
2019-05-30T10:03:17.313Z,21.12
2019-05-30T10:04:18.354Z,20.76
2019-05-30T10:05:17.354Z,20.93
2019-05-30T10:06:29.165Z,20.85
2019-05-30T10:07:18.278Z,20.94
2019-05-30T10:08:17.367Z,20.94
2019-05-30T10:09:17.257Z,20.72
2019-05-30T10:10:17.258Z,20.75
2019-05-30T10:11:17.230Z,20.87
2019-05-30T10:12:17.241Z,20.82
2019-05-30T10:13:17.199Z,20.72
2019-05-30T10:14:17.270Z,20.78
2019-05-30T10:15:17.190Z,20.85
2019-05-30T10:16:17.202Z,20.66
2019-05-30T10:17:17.152Z,20.60
2019-05-30T10:18:17.159Z,20.72
2019-05-30T10:19:17.144Z,20.63
2019-05-30T10:20:17.145Z,20.46
2019-05-30T10:21:17.115Z,20.33
2019-05-30T10:22:17.118Z,20.22
2019-05-30T10:23:17.097Z,20.20
2019-05-30T10:24:17.149Z,20.13
2019-05-30T10:25:17.090Z,20.30
2019-05-30T10:26:17.058Z,20.35
2019-05-30T10:27:17.160Z,20.48
2019-05-30T10:28:17.030Z,20.37
2019-05-30T10:29:17.092Z,20.17
2019-05-30T10:30:17.031Z,19.98
2019-05-30T10:31:17.005Z,19.98
2019-05-30T10:32:17.003Z,20.23
2019-05-30T10:33:16.983Z,20.23
2019-05-30T10:34:17.037Z,20.26
2019-05-30T10:35:16.985Z,20.33
2019-05-30T10:36:19.838Z,20.16
2019-05-30T10:37:16.936Z,20.17
2019-05-30T10:38:19.972Z,20.22
2019-05-30T10:39:16.916Z,20.15
2019-05-30T10:40:16.987Z,20.26
2019-05-30T10:41:16.888Z,20.33
2019-05-30T10:42:16.880Z,20.51
2019-05-30T10:43:17.971Z,20.53
2019-05-30T10:44:16.871Z,20.46
2019-05-30T10:45:16.942Z,20.75
2019-05-30T10:46:16.842Z,20.88
2019-05-30T10:47:16.832Z,20.93
2019-05-30T10:48:20.406Z,20.96
2019-05-30T10:49:16.804Z,20.98
2019-05-30T10:50:16.879Z,20.88
2019-05-30T10:51:16.775Z,20.91
2019-05-30T10:52:16.766Z,20.79
2019-05-30T10:53:16.827Z,20.79
2019-05-30T10:54:16.757Z,20.85
2019-05-30T10:55:16.808Z,20.90
2019-05-30T10:56:16.739Z,20.75
2019-05-30T10:57:16.721Z,20.63
2019-05-30T10:58:16.711Z,20.78
2019-05-30T10:59:16.740Z,21.00
2019-05-30T11:00:16.702Z,21.11
2019-05-30T11:01:16.772Z,21.15
2019-05-30T11:02:16.663Z,21.11
2019-05-30T11:03:16.706Z,21.12
2019-05-30T11:04:16.634Z,21.05
2019-05-30T11:05:16.645Z,21.05
2019-05-30T11:06:16.646Z,20.85
2019-05-30T11:07:16.688Z,20.78
2019-05-30T11:08:16.606Z,20.73
2019-05-30T11:09:16.628Z,20.69
2019-05-30T11:10:16.579Z,20.79
2019-05-30T11:11:17.599Z,20.90
2019-05-30T11:12:16.552Z,21.06
2019-05-30T11:13:16.548Z,21.12
2019-05-30T11:14:16.562Z,20.98
2019-05-30T11:15:16.513Z,20.85
2019-05-30T11:16:16.543Z,20.93
2019-05-30T11:17:16.492Z,20.97
2019-05-30T11:18:16.498Z,20.75
2019-05-30T11:19:16.474Z,20.68
2019-05-30T11:20:16.599Z,20.73
2019-05-30T11:21:16.476Z,20.71
2019-05-30T11:22:16.518Z,20.48
2019-05-30T11:23:16.438Z,20.50
2019-05-30T11:24:16.427Z,20.42
2019-05-30T11:25:16.509Z,20.44
2019-05-30T11:26:16.410Z,20.61
2019-05-30T11:27:16.449Z,20.57
2019-05-30T11:28:16.373Z,20.66
2019-05-30T11:29:16.360Z,20.61
2019-05-30T11:30:16.351Z,20.63
2019-05-30T11:31:16.481Z,20.73
2019-05-30T11:32:16.335Z,20.63
2019-05-30T11:33:16.363Z,20.63
2019-05-30T11:34:16.434Z,20.71
2019-05-30T11:35:16.306Z,20.58
2019-05-30T11:36:16.416Z,20.68
2019-05-30T11:37:18.818Z,20.64
2019-05-30T11:38:16.297Z,20.73
2019-05-30T11:39:16.368Z,20.75
2019-05-30T11:40:16.243Z,20.82
2019-05-30T11:41:16.360Z,20.82
2019-05-30T11:42:16.219Z,20.83
2019-05-30T11:43:16.243Z,20.69
2019-05-30T11:44:16.201Z,20.51
2019-05-30T11:45:16.191Z,20.50
2019-05-30T11:46:16.306Z,20.51
2019-05-30T11:47:16.173Z,20.50
2019-05-30T11:48:16.174Z,20.73
2019-05-30T11:49:16.150Z,20.96
2019-05-30T11:50:16.135Z,21.08
2019-05-30T11:51:16.116Z,21.15
2019-05-30T11:52:16.198Z,21.21
2019-05-30T11:53:16.097Z,21.18
2019-05-30T11:54:17.117Z,21.27
2019-05-30T11:55:16.081Z,21.27
2019-05-30T11:56:17.148Z,21.36
2019-05-30T11:57:16.080Z,21.21
2019-05-30T11:58:19.363Z,21.40
2019-05-30T11:59:16.041Z,21.05
2019-05-30T12:00:16.023Z,20.78
2019-05-30T12:01:16.009Z,20.73
2019-05-30T12:02:18.033Z,20.53
2019-05-30T12:03:15.984Z,20.60
2019-05-30T12:04:16.076Z,20.63
2019-05-30T12:05:15.967Z,20.64
2019-05-30T12:06:15.966Z,20.61
2019-05-30T12:07:16.036Z,20.64
2019-05-30T12:08:15.936Z,20.69
2019-05-30T12:09:16.018Z,20.87
2019-05-30T12:10:15.918Z,21.03
2019-05-30T12:11:15.912Z,21.22
2019-05-30T12:12:15.900Z,21.22
2019-05-30T12:13:16.913Z,21.38
2019-05-30T12:14:15.865Z,21.33
2019-05-30T12:15:15.921Z,21.24
2019-05-30T12:16:15.893Z,21.21
2019-05-30T12:17:15.842Z,21.13
2019-05-30T12:18:15.933Z,21.18
2019-05-30T12:19:15.814Z,21.21
2019-05-30T12:20:15.865Z,21.24
2019-05-30T12:21:15.795Z,21.05
2019-05-30T12:22:15.865Z,20.75
2019-05-30T12:23:15.777Z,20.83
2019-05-30T12:24:15.837Z,20.98
2019-05-30T12:25:15.754Z,21.16
2019-05-30T12:26:15.729Z,21.24
2019-05-30T12:27:15.749Z,21.27
2019-05-30T12:28:15.798Z,21.42
2019-05-30T12:29:15.701Z,21.52
2019-05-30T12:30:15.756Z,21.73
2019-05-30T12:31:15.695Z,21.73
2019-05-30T12:32:16.703Z,21.67
2019-05-30T12:33:15.684Z,21.77
2019-05-30T12:34:15.724Z,21.77
2019-05-30T12:35:15.634Z,21.74
2019-05-30T12:36:15.645Z,21.67
2019-05-30T12:37:15.605Z,21.77
2019-05-30T12:38:15.627Z,21.90
2019-05-30T12:39:15.587Z,21.86
2019-05-30T12:40:15.629Z,21.98
2019-05-30T12:41:15.569Z,22.11
2019-05-30T12:42:15.550Z,22.15
2019-05-30T12:43:15.571Z,21.94
2019-05-30T12:44:15.605Z,21.77
2019-05-30T12:45:15.531Z,21.73
2019-05-30T12:46:15.543Z,21.73
2019-05-30T12:47:15.514Z,21.68
2019-05-30T12:48:15.614Z,21.70
2019-05-30T12:49:15.474Z,21.70
2019-05-30T12:50:16.776Z,21.71
2019-05-30T12:51:15.466Z,21.70
2019-05-30T12:52:15.547Z,21.59
2019-05-30T12:53:15.458Z,21.66
2019-05-30T12:54:15.488Z,21.75
2019-05-30T12:55:15.419Z,21.73
2019-05-30T12:56:16.438Z,21.67
2019-05-30T12:57:15.399Z,21.59
2019-05-30T12:58:15.411Z,21.66
2019-05-30T12:59:15.430Z,21.77
2019-05-30T13:00:18.658Z,21.75
2019-05-30T13:01:15.463Z,21.73
2019-05-30T13:02:15.334Z,21.68
2019-05-30T13:03:15.349Z,21.68
2019-05-30T13:04:15.316Z,21.58